sensor_id;sensor_type;location;lat;lon;timestamp;temperature;humidity
43665;DHT22;29263;48.172;11.484;2023-07-16T00:01:05;22.40;98.30
43665;DHT22;29263;48.172;11.484;2023-07-16T00:03:30;22.40;98.90
43665;DHT22;29263;48.172;11.484;2023-07-16T00:05:56;22.30;99.50
43665;DHT22;29263;48.172;11.484;2023-07-16T00:08:22;22.10;99.90
43665;DHT22;29263;48.172;11.484;2023-07-16T00:10:47;22.00;99.90
43665;DHT22;29263;48.172;11.484;2023-07-16T00:13:13;21.90;99.90
43665;DHT22;29263;48.172;11.484;2023-07-16T00:15:39;21.90;99.90
43665;DHT22;29263;48.172;11.484;2023-07-16T00:18:04;21.90;99.90
43665;DHT22;29263;48.172;11.484;2023-07-16T00:20:31;21.80;99.90
43665;DHT22;29263;48.172;11.484;2023-07-16T00:22:57;21.80;99.90
43665;DHT22;29263;48.172;11.484;2023-07-16T00:25:23;21.60;99.90
43665;DHT22;29263;48.172;11.484;2023-07-16T00:27:48;21.60;99.90
43665;DHT22;29263;48.172;11.484;2023-07-16T00:30:14;21.50;99.90
43665;DHT22;29263;48.172;11.484;2023-07-16T00:32:39;21.40;99.90
43665;DHT22;29263;48.172;11.484;2023-07-16T00:35:05;21.40;99.90
43665;DHT22;29263;48.172;11.484;2023-07-16T00:37:31;21.30;99.90
43665;DHT22;29263;48.172;11.484;2023-07-16T00:39:56;21.20;99.90
43665;DHT22;29263;48.172;11.484;2023-07-16T00:42:22;21.20;99.90
43665;DHT22;29263;48.172;11.484;2023-07-16T00:44:48;21.30;99.90
43665;DHT22;29263;48.172;11.484;2023-07-16T00:47:13;21.20;99.90
43665;DHT22;29263;48.172;11.484;2023-07-16T00:49:39;21.30;99.90
43665;DHT22;29263;48.172;11.484;2023-07-16T00:52:09;21.30;99.90
43665;DHT22;29263;48.172;11.484;2023-07-16T00:54:35;21.40;99.90
43665;DHT22;29263;48.172;11.484;2023-07-16T00:57:00;21.50;99.90
43665;DHT22;29263;48.172;11.484;2023-07-16T00:59:26;21.50;99.90
43665;DHT22;29263;48.172;11.484;2023-07-16T01:01:52;21.50;99.90
43665;DHT22;29263;48.172;11.484;2023-07-16T01:04:17;21.50;99.90
43665;DHT22;29263;48.172;11.484;2023-07-16T01:06:47;21.50;99.90
43665;DHT22;29263;48.172;11.484;2023-07-16T01:09:15;21.50;99.90
43665;DHT22;29263;48.172;11.484;2023-07-16T01:11:43;21.50;99.90
43665;DHT22;29263;48.172;11.484;2023-07-16T01:14:10;21.50;99.90
43665;DHT22;29263;48.172;11.484;2023-07-16T01:16:36;21.50;99.90
43665;DHT22;29263;48.172;11.484;2023-07-16T01:19:02;21.50;99.90
43665;DHT22;29263;48.172;11.484;2023-07-16T01:27:02;21.30;99.90
43665;DHT22;29263;48.172;11.484;2023-07-16T01:29:42;21.30;99.90
43665;DHT22;29263;48.172;11.484;2023-07-16T01:32:09;21.30;99.90
43665;DHT22;29263;48.172;11.484;2023-07-16T01:34:38;21.30;99.90
43665;DHT22;29263;48.172;11.484;2023-07-16T01:37:05;21.30;99.90
43665;DHT22;29263;48.172;11.484;2023-07-16T01:39:31;21.20;99.90
43665;DHT22;29263;48.172;11.484;2023-07-16T01:42:00;21.20;99.90
43665;DHT22;29263;48.172;11.484;2023-07-16T01:44:26;21.10;99.90
43665;DHT22;29263;48.172;11.484;2023-07-16T01:47:11;21.20;99.90
43665;DHT22;29263;48.172;11.484;2023-07-16T01:49:40;21.20;99.90
43665;DHT22;29263;48.172;11.484;2023-07-16T01:52:07;21.20;99.90
43665;DHT22;29263;48.172;11.484;2023-07-16T01:54:33;21.20;99.90
43665;DHT22;29263;48.172;11.484;2023-07-16T01:56:58;21.10;99.90
43665;DHT22;29263;48.172;11.484;2023-07-16T01:59:24;21.20;99.90
43665;DHT22;29263;48.172;11.484;2023-07-16T02:01:50;21.20;99.90
43665;DHT22;29263;48.172;11.484;2023-07-16T02:04:15;21.20;99.90
43665;DHT22;29263;48.172;11.484;2023-07-16T02:06:41;21.20;99.90
43665;DHT22;29263;48.172;11.484;2023-07-16T02:09:06;21.20;99.90
43665;DHT22;29263;48.172;11.484;2023-07-16T02:11:32;21.20;99.90
43665;DHT22;29263;48.172;11.484;2023-07-16T02:13:58;21.20;99.90
43665;DHT22;29263;48.172;11.484;2023-07-16T02:16:23;21.10;99.90
43665;DHT22;29263;48.172;11.484;2023-07-16T02:18:49;21.20;99.90
43665;DHT22;29263;48.172;11.484;2023-07-16T02:21:15;21.10;99.90
43665;DHT22;29263;48.172;11.484;2023-07-16T02:23:40;21.10;99.90
43665;DHT22;29263;48.172;11.484;2023-07-16T02:26:06;21.10;99.90
43665;DHT22;29263;48.172;11.484;2023-07-16T02:28:31;21.10;99.90
43665;DHT22;29263;48.172;11.484;2023-07-16T02:30:58;21.10;99.90
43665;DHT22;29263;48.172;11.484;2023-07-16T02:33:23;21.10;99.90
43665;DHT22;29263;48.172;11.484;2023-07-16T02:35:50;21.10;99.90
43665;DHT22;29263;48.172;11.484;2023-07-16T02:38:17;21.10;99.90
43665;DHT22;29263;48.172;11.484;2023-07-16T02:40:47;21.20;99.90
43665;DHT22;29263;48.172;11.484;2023-07-16T02:43:14;21.20;99.90
43665;DHT22;29263;48.172;11.484;2023-07-16T02:45:39;21.20;99.90
43665;DHT22;29263;48.172;11.484;2023-07-16T02:48:06;21.20;99.90
43665;DHT22;29263;48.172;11.484;2023-07-16T02:50:36;21.30;99.90
43665;DHT22;29263;48.172;11.484;2023-07-16T02:53:04;21.30;99.90
43665;DHT22;29263;48.172;11.484;2023-07-16T02:55:30;21.40;99.90
43665;DHT22;29263;48.172;11.484;2023-07-16T02:57:56;21.40;99.90
43665;DHT22;29263;48.172;11.484;2023-07-16T03:00:22;21.40;99.90
43665;DHT22;29263;48.172;11.484;2023-07-16T03:02:47;21.30;99.90
43665;DHT22;29263;48.172;11.484;2023-07-16T03:05:15;21.30;99.90
43665;DHT22;29263;48.172;11.484;2023-07-16T03:07:40;21.40;99.90
43665;DHT22;29263;48.172;11.484;2023-07-16T03:10:06;21.40;99.90
43665;DHT22;29263;48.172;11.484;2023-07-16T03:12:32;21.30;99.90
43665;DHT22;29263;48.172;11.484;2023-07-16T03:14:57;21.30;99.90
43665;DHT22;29263;48.172;11.484;2023-07-16T03:17:23;21.30;99.90
43665;DHT22;29263;48.172;11.484;2023-07-16T03:19:49;21.40;99.90
43665;DHT22;29263;48.172;11.484;2023-07-16T03:22:14;21.30;99.90
43665;DHT22;29263;48.172;11.484;2023-07-16T03:24:40;21.30;99.90
43665;DHT22;29263;48.172;11.484;2023-07-16T03:27:06;21.30;99.90
43665;DHT22;29263;48.172;11.484;2023-07-16T03:29:35;21.20;99.90
43665;DHT22;29263;48.172;11.484;2023-07-16T03:32:01;21.20;99.90
43665;DHT22;29263;48.172;11.484;2023-07-16T03:34:27;21.20;99.90
43665;DHT22;29263;48.172;11.484;2023-07-16T03:36:52;21.20;99.90
43665;DHT22;29263;48.172;11.484;2023-07-16T03:39:18;21.30;99.90
43665;DHT22;29263;48.172;11.484;2023-07-16T03:41:44;21.30;99.90
43665;DHT22;29263;48.172;11.484;2023-07-16T03:44:10;21.10;99.90
43665;DHT22;29263;48.172;11.484;2023-07-16T03:46:35;21.10;99.90
43665;DHT22;29263;48.172;11.484;2023-07-16T03:49:01;21.10;99.90
43665;DHT22;29263;48.172;11.484;2023-07-16T03:51:27;21.10;99.90
43665;DHT22;29263;48.172;11.484;2023-07-16T03:53:53;21.10;99.90
43665;DHT22;29263;48.172;11.484;2023-07-16T03:56:18;21.10;99.90
43665;DHT22;29263;48.172;11.484;2023-07-16T03:58:44;21.00;99.90
43665;DHT22;29263;48.172;11.484;2023-07-16T04:01:10;21.00;99.90
43665;DHT22;29263;48.172;11.484;2023-07-16T04:03:35;20.90;99.90
43665;DHT22;29263;48.172;11.484;2023-07-16T04:06:08;21.00;99.90
43665;DHT22;29263;48.172;11.484;2023-07-16T04:08:37;21.00;99.90
43665;DHT22;29263;48.172;11.484;2023-07-16T04:11:04;21.00;99.90
43665;DHT22;29263;48.172;11.484;2023-07-16T04:13:29;21.10;99.90
43665;DHT22;29263;48.172;11.484;2023-07-16T04:15:55;21.00;99.90
43665;DHT22;29263;48.172;11.484;2023-07-16T04:18:23;20.80;99.90
43665;DHT22;29263;48.172;11.484;2023-07-16T04:20:48;20.70;99.90
43665;DHT22;29263;48.172;11.484;2023-07-16T04:23:14;20.60;99.90
43665;DHT22;29263;48.172;11.484;2023-07-16T04:25:39;20.60;99.90
43665;DHT22;29263;48.172;11.484;2023-07-16T04:28:05;20.60;99.90
43665;DHT22;29263;48.172;11.484;2023-07-16T04:30:31;20.50;99.90
43665;DHT22;29263;48.172;11.484;2023-07-16T04:32:56;20.50;99.90
43665;DHT22;29263;48.172;11.484;2023-07-16T04:35:22;20.50;99.90
43665;DHT22;29263;48.172;11.484;2023-07-16T04:37:48;20.40;99.90
43665;DHT22;29263;48.172;11.484;2023-07-16T04:40:13;20.30;99.90
43665;DHT22;29263;48.172;11.484;2023-07-16T04:42:39;20.20;99.90
43665;DHT22;29263;48.172;11.484;2023-07-16T04:45:05;20.20;99.90
43665;DHT22;29263;48.172;11.484;2023-07-16T04:47:31;20.10;99.90
43665;DHT22;29263;48.172;11.484;2023-07-16T04:49:58;20.00;99.90
43665;DHT22;29263;48.172;11.484;2023-07-16T04:52:24;20.10;99.90
43665;DHT22;29263;48.172;11.484;2023-07-16T04:54:49;20.20;99.90
43665;DHT22;29263;48.172;11.484;2023-07-16T04:57:15;20.20;99.90
43665;DHT22;29263;48.172;11.484;2023-07-16T04:59:41;20.30;99.90
43665;DHT22;29263;48.172;11.484;2023-07-16T05:02:07;20.30;99.90
43665;DHT22;29263;48.172;11.484;2023-07-16T05:04:35;20.30;99.90
43665;DHT22;29263;48.172;11.484;2023-07-16T05:07:02;20.30;99.90
43665;DHT22;29263;48.172;11.484;2023-07-16T05:09:28;20.20;99.90
43665;DHT22;29263;48.172;11.484;2023-07-16T05:11:54;20.20;99.90
43665;DHT22;29263;48.172;11.484;2023-07-16T05:14:19;20.20;99.90
43665;DHT22;29263;48.172;11.484;2023-07-16T05:16:45;20.20;99.90
43665;DHT22;29263;48.172;11.484;2023-07-16T05:19:10;20.20;99.90
43665;DHT22;29263;48.172;11.484;2023-07-16T05:21:36;20.10;99.90
43665;DHT22;29263;48.172;11.484;2023-07-16T05:24:01;20.10;99.90
43665;DHT22;29263;48.172;11.484;2023-07-16T05:26:27;20.10;99.90
43665;DHT22;29263;48.172;11.484;2023-07-16T05:28:53;20.10;99.90
43665;DHT22;29263;48.172;11.484;2023-07-16T05:31:18;20.10;99.90
43665;DHT22;29263;48.172;11.484;2023-07-16T05:33:44;20.10;99.90
43665;DHT22;29263;48.172;11.484;2023-07-16T05:36:10;20.10;99.90
43665;DHT22;29263;48.172;11.484;2023-07-16T05:38:35;20.10;99.90
43665;DHT22;29263;48.172;11.484;2023-07-16T05:41:02;20.20;99.90
43665;DHT22;29263;48.172;11.484;2023-07-16T05:43:28;20.20;99.90
43665;DHT22;29263;48.172;11.484;2023-07-16T05:45:54;20.20;99.90
43665;DHT22;29263;48.172;11.484;2023-07-16T05:48:19;20.20;99.90
43665;DHT22;29263;48.172;11.484;2023-07-16T05:50:45;20.20;99.90
43665;DHT22;29263;48.172;11.484;2023-07-16T05:53:11;20.30;99.90
43665;DHT22;29263;48.172;11.484;2023-07-16T05:55:39;20.30;99.90
43665;DHT22;29263;48.172;11.484;2023-07-16T05:58:04;20.30;99.90
43665;DHT22;29263;48.172;11.484;2023-07-16T06:00:30;20.50;99.90
43665;DHT22;29263;48.172;11.484;2023-07-16T06:02:55;20.60;99.90
43665;DHT22;29263;48.172;11.484;2023-07-16T06:05:22;20.70;99.90
43665;DHT22;29263;48.172;11.484;2023-07-16T06:07:47;20.80;99.90
43665;DHT22;29263;48.172;11.484;2023-07-16T06:10:13;20.90;99.90
43665;DHT22;29263;48.172;11.484;2023-07-16T06:12:39;20.90;99.90
43665;DHT22;29263;48.172;11.484;2023-07-16T06:15:04;20.90;99.90
43665;DHT22;29263;48.172;11.484;2023-07-16T06:17:30;20.80;99.90
43665;DHT22;29263;48.172;11.484;2023-07-16T06:19:56;20.80;99.90
43665;DHT22;29263;48.172;11.484;2023-07-16T06:22:23;20.80;99.90
43665;DHT22;29263;48.172;11.484;2023-07-16T06:24:48;20.90;99.90
43665;DHT22;29263;48.172;11.484;2023-07-16T06:27:14;20.90;99.90
43665;DHT22;29263;48.172;11.484;2023-07-16T06:29:39;20.90;99.90
43665;DHT22;29263;48.172;11.484;2023-07-16T06:32:06;21.00;99.90
43665;DHT22;29263;48.172;11.484;2023-07-16T06:34:32;21.00;99.90
43665;DHT22;29263;48.172;11.484;2023-07-16T06:36:58;21.00;99.90
43665;DHT22;29263;48.172;11.484;2023-07-16T06:39:23;21.00;99.90
43665;DHT22;29263;48.172;11.484;2023-07-16T06:41:49;21.00;99.90
43665;DHT22;29263;48.172;11.484;2023-07-16T06:44:14;21.10;99.90
43665;DHT22;29263;48.172;11.484;2023-07-16T06:46:40;21.20;99.90
43665;DHT22;29263;48.172;11.484;2023-07-16T06:49:06;21.20;99.90
43665;DHT22;29263;48.172;11.484;2023-07-16T06:51:35;21.30;99.90
43665;DHT22;29263;48.172;11.484;2023-07-16T06:54:00;21.40;99.90
43665;DHT22;29263;48.172;11.484;2023-07-16T06:56:26;21.40;99.90
43665;DHT22;29263;48.172;11.484;2023-07-16T06:58:52;21.40;99.90
43665;DHT22;29263;48.172;11.484;2023-07-16T07:01:17;21.40;99.90
43665;DHT22;29263;48.172;11.484;2023-07-16T07:03:43;21.30;99.90
43665;DHT22;29263;48.172;11.484;2023-07-16T07:06:08;21.40;99.90
43665;DHT22;29263;48.172;11.484;2023-07-16T07:08:36;21.30;99.90
43665;DHT22;29263;48.172;11.484;2023-07-16T07:11:04;21.20;99.90
43665;DHT22;29263;48.172;11.484;2023-07-16T07:13:30;21.30;99.90
43665;DHT22;29263;48.172;11.484;2023-07-16T07:15:56;21.30;99.90
43665;DHT22;29263;48.172;11.484;2023-07-16T07:18:22;21.30;99.90
43665;DHT22;29263;48.172;11.484;2023-07-16T07:20:47;21.20;99.90
43665;DHT22;29263;48.172;11.484;2023-07-16T07:23:14;21.20;99.90
43665;DHT22;29263;48.172;11.484;2023-07-16T07:25:40;21.20;99.90
43665;DHT22;29263;48.172;11.484;2023-07-16T07:28:06;21.20;99.90
43665;DHT22;29263;48.172;11.484;2023-07-16T07:30:31;21.10;99.90
43665;DHT22;29263;48.172;11.484;2023-07-16T07:32:57;21.10;99.90
43665;DHT22;29263;48.172;11.484;2023-07-16T07:35:23;21.00;99.90
43665;DHT22;29263;48.172;11.484;2023-07-16T07:37:48;21.00;99.90
43665;DHT22;29263;48.172;11.484;2023-07-16T07:40:14;20.90;99.90
43665;DHT22;29263;48.172;11.484;2023-07-16T07:42:39;20.90;99.90
43665;DHT22;29263;48.172;11.484;2023-07-16T07:45:05;21.00;99.90
43665;DHT22;29263;48.172;11.484;2023-07-16T07:47:31;21.00;99.90
43665;DHT22;29263;48.172;11.484;2023-07-16T07:49:57;21.10;99.90
43665;DHT22;29263;48.172;11.484;2023-07-16T07:52:22;21.20;99.90
43665;DHT22;29263;48.172;11.484;2023-07-16T07:54:48;21.20;99.90
43665;DHT22;29263;48.172;11.484;2023-07-16T07:57:14;21.30;99.90
43665;DHT22;29263;48.172;11.484;2023-07-16T07:59:40;21.40;99.90
43665;DHT22;29263;48.172;11.484;2023-07-16T08:02:06;21.40;99.90
43665;DHT22;29263;48.172;11.484;2023-07-16T08:04:31;21.40;99.90
43665;DHT22;29263;48.172;11.484;2023-07-16T08:06:57;21.40;99.90
43665;DHT22;29263;48.172;11.484;2023-07-16T08:09:25;21.50;99.90
43665;DHT22;29263;48.172;11.484;2023-07-16T08:11:51;21.50;99.90
43665;DHT22;29263;48.172;11.484;2023-07-16T08:14:16;21.70;99.90
43665;DHT22;29263;48.172;11.484;2023-07-16T08:16:42;21.70;99.90
43665;DHT22;29263;48.172;11.484;2023-07-16T08:19:07;21.70;99.90
43665;DHT22;29263;48.172;11.484;2023-07-16T08:21:34;21.80;99.90
43665;DHT22;29263;48.172;11.484;2023-07-16T08:23:59;21.90;99.90
43665;DHT22;29263;48.172;11.484;2023-07-16T08:26:25;21.90;99.90
43665;DHT22;29263;48.172;11.484;2023-07-16T08:28:50;22.00;99.90
43665;DHT22;29263;48.172;11.484;2023-07-16T08:31:16;22.00;99.90
43665;DHT22;29263;48.172;11.484;2023-07-16T08:33:41;22.20;99.90
43665;DHT22;29263;48.172;11.484;2023-07-16T08:36:09;22.40;99.90
43665;DHT22;29263;48.172;11.484;2023-07-16T08:38:40;22.40;99.90
43665;DHT22;29263;48.172;11.484;2023-07-16T08:41:06;22.40;99.90
43665;DHT22;29263;48.172;11.484;2023-07-16T08:43:33;22.40;99.90
43665;DHT22;29263;48.172;11.484;2023-07-16T08:46:00;22.50;99.90
43665;DHT22;29263;48.172;11.484;2023-07-16T08:48:28;22.70;99.90
43665;DHT22;29263;48.172;11.484;2023-07-16T08:50:55;22.90;99.90
43665;DHT22;29263;48.172;11.484;2023-07-16T08:53:22;22.80;99.90
43665;DHT22;29263;48.172;11.484;2023-07-16T08:55:48;22.80;99.90
43665;DHT22;29263;48.172;11.484;2023-07-16T08:58:14;22.90;99.90
43665;DHT22;29263;48.172;11.484;2023-07-16T09:00:43;23.00;99.90
43665;DHT22;29263;48.172;11.484;2023-07-16T09:03:13;23.10;99.90
43665;DHT22;29263;48.172;11.484;2023-07-16T09:05:39;23.10;99.90
43665;DHT22;29263;48.172;11.484;2023-07-16T09:08:06;23.10;99.90
43665;DHT22;29263;48.172;11.484;2023-07-16T09:10:32;23.00;99.90
43665;DHT22;29263;48.172;11.484;2023-07-16T09:12:58;23.10;99.90
43665;DHT22;29263;48.172;11.484;2023-07-16T09:15:25;23.20;99.90
43665;DHT22;29263;48.172;11.484;2023-07-16T09:17:53;23.20;99.90
43665;DHT22;29263;48.172;11.484;2023-07-16T09:20:19;23.30;99.90
43665;DHT22;29263;48.172;11.484;2023-07-16T09:22:47;23.40;99.20
43665;DHT22;29263;48.172;11.484;2023-07-16T09:25:13;23.40;99.90
43665;DHT22;29263;48.172;11.484;2023-07-16T09:27:38;23.50;99.90
43665;DHT22;29263;48.172;11.484;2023-07-16T09:30:05;23.50;99.90
43665;DHT22;29263;48.172;11.484;2023-07-16T09:32:38;23.50;98.60
43665;DHT22;29263;48.172;11.484;2023-07-16T09:35:10;23.60;99.10
43665;DHT22;29263;48.172;11.484;2023-07-16T09:37:39;23.60;97.90
43665;DHT22;29263;48.172;11.484;2023-07-16T09:40:10;23.80;98.10
43665;DHT22;29263;48.172;11.484;2023-07-16T09:42:37;24.00;97.80
43665;DHT22;29263;48.172;11.484;2023-07-16T09:45:07;24.30;97.90
43665;DHT22;29263;48.172;11.484;2023-07-16T09:47:35;24.50;94.40
43665;DHT22;29263;48.172;11.484;2023-07-16T09:50:02;24.60;95.10
43665;DHT22;29263;48.172;11.484;2023-07-16T09:52:27;24.60;93.90
43665;DHT22;29263;48.172;11.484;2023-07-16T09:54:55;24.50;93.80
43665;DHT22;29263;48.172;11.484;2023-07-16T09:57:23;24.50;94.00
43665;DHT22;29263;48.172;11.484;2023-07-16T09:59:52;24.60;94.50
43665;DHT22;29263;48.172;11.484;2023-07-16T10:02:20;24.80;94.60
43665;DHT22;29263;48.172;11.484;2023-07-16T10:04:46;25.00;95.20
43665;DHT22;29263;48.172;11.484;2023-07-16T10:07:20;25.30;94.80
43665;DHT22;29263;48.172;11.484;2023-07-16T10:09:55;25.40;92.10
43665;DHT22;29263;48.172;11.484;2023-07-16T10:12:23;25.30;92.10
43665;DHT22;29263;48.172;11.484;2023-07-16T10:14:50;25.40;92.20
43665;DHT22;29263;48.172;11.484;2023-07-16T10:17:21;25.40;90.70
43665;DHT22;29263;48.172;11.484;2023-07-16T10:22:37;25.30;91.10
43665;DHT22;29263;48.172;11.484;2023-07-16T10:27:47;25.30;90.60
43665;DHT22;29263;48.172;11.484;2023-07-16T10:30:13;25.30;90.80
43665;DHT22;29263;48.172;11.484;2023-07-16T10:32:40;25.40;89.80
43665;DHT22;29263;48.172;11.484;2023-07-16T10:35:07;25.30;90.30
43665;DHT22;29263;48.172;11.484;2023-07-16T10:37:36;25.30;90.00
43665;DHT22;29263;48.172;11.484;2023-07-16T10:40:03;25.20;90.20
43665;DHT22;29263;48.172;11.484;2023-07-16T10:42:30;25.20;89.90
43665;DHT22;29263;48.172;11.484;2023-07-16T10:45:00;25.10;90.70
43665;DHT22;29263;48.172;11.484;2023-07-16T10:47:33;25.10;90.50
43665;DHT22;29263;48.172;11.484;2023-07-16T10:50:00;25.10;90.40
43665;DHT22;29263;48.172;11.484;2023-07-16T10:52:26;25.10;90.00
43665;DHT22;29263;48.172;11.484;2023-07-16T10:54:52;25.10;90.70
43665;DHT22;29263;48.172;11.484;2023-07-16T10:57:23;25.30;90.70
43665;DHT22;29263;48.172;11.484;2023-07-16T10:59:51;25.60;91.10
43665;DHT22;29263;48.172;11.484;2023-07-16T11:02:18;25.70;90.20
43665;DHT22;29263;48.172;11.484;2023-07-16T11:04:45;25.60;89.30
43665;DHT22;29263;48.172;11.484;2023-07-16T11:07:12;25.50;90.00
43665;DHT22;29263;48.172;11.484;2023-07-16T11:09:50;25.50;90.00
43665;DHT22;29263;48.172;11.484;2023-07-16T11:12:17;25.30;90.60
43665;DHT22;29263;48.172;11.484;2023-07-16T11:14:47;25.30;91.00
43665;DHT22;29263;48.172;11.484;2023-07-16T11:17:14;25.30;90.40
43665;DHT22;29263;48.172;11.484;2023-07-16T11:19:41;25.20;89.70
43665;DHT22;29263;48.172;11.484;2023-07-16T11:22:09;25.30;90.30
43665;DHT22;29263;48.172;11.484;2023-07-16T11:24:42;25.50;89.10
43665;DHT22;29263;48.172;11.484;2023-07-16T11:27:27;25.80;88.40
43665;DHT22;29263;48.172;11.484;2023-07-16T11:29:57;26.20;89.50
43665;DHT22;29263;48.172;11.484;2023-07-16T11:32:49;26.50;86.30
43665;DHT22;29263;48.172;11.484;2023-07-16T11:35:16;26.50;87.90
43665;DHT22;29263;48.172;11.484;2023-07-16T11:37:43;26.40;85.60
43665;DHT22;29263;48.172;11.484;2023-07-16T11:40:10;26.20;87.40
43665;DHT22;29263;48.172;11.484;2023-07-16T11:42:39;26.00;87.20
43665;DHT22;29263;48.172;11.484;2023-07-16T11:45:15;25.80;87.60
43665;DHT22;29263;48.172;11.484;2023-07-16T11:47:40;25.70;88.10
43665;DHT22;29263;48.172;11.484;2023-07-16T11:50:06;25.60;88.20
43665;DHT22;29263;48.172;11.484;2023-07-16T11:52:32;25.60;88.30
43665;DHT22;29263;48.172;11.484;2023-07-16T11:54:58;25.80;86.70
43665;DHT22;29263;48.172;11.484;2023-07-16T11:57:29;26.10;87.00
43665;DHT22;29263;48.172;11.484;2023-07-16T11:59:55;26.40;85.20
43665;DHT22;29263;48.172;11.484;2023-07-16T12:02:21;26.70;85.50
43665;DHT22;29263;48.172;11.484;2023-07-16T12:04:47;27.00;84.20
43665;DHT22;29263;48.172;11.484;2023-07-16T12:07:13;27.20;84.10
43665;DHT22;29263;48.172;11.484;2023-07-16T12:09:39;27.30;83.60
43665;DHT22;29263;48.172;11.484;2023-07-16T12:12:05;27.40;83.30
43665;DHT22;29263;48.172;11.484;2023-07-16T12:14:31;27.30;84.80
43665;DHT22;29263;48.172;11.484;2023-07-16T12:16:57;27.20;83.40
43665;DHT22;29263;48.172;11.484;2023-07-16T12:19:24;27.00;83.70
43665;DHT22;29263;48.172;11.484;2023-07-16T12:21:50;26.60;83.40
43665;DHT22;29263;48.172;11.484;2023-07-16T12:24:16;26.40;85.90
43665;DHT22;29263;48.172;11.484;2023-07-16T12:26:42;26.20;88.40
43665;DHT22;29263;48.172;11.484;2023-07-16T12:29:08;26.10;90.00
43665;DHT22;29263;48.172;11.484;2023-07-16T12:31:33;26.00;89.90
43665;DHT22;29263;48.172;11.484;2023-07-16T12:34:00;25.80;90.40
43665;DHT22;29263;48.172;11.484;2023-07-16T12:36:29;25.80;90.90
43665;DHT22;29263;48.172;11.484;2023-07-16T12:38:55;25.80;90.30
43665;DHT22;29263;48.172;11.484;2023-07-16T12:41:21;26.00;89.90
43665;DHT22;29263;48.172;11.484;2023-07-16T12:43:47;26.00;90.10
43665;DHT22;29263;48.172;11.484;2023-07-16T12:46:12;26.10;90.40
43665;DHT22;29263;48.172;11.484;2023-07-16T12:48:38;26.10;90.10
43665;DHT22;29263;48.172;11.484;2023-07-16T12:51:04;26.00;90.00
43665;DHT22;29263;48.172;11.484;2023-07-16T12:53:29;25.90;90.10
43665;DHT22;29263;48.172;11.484;2023-07-16T12:55:55;25.80;90.30
43665;DHT22;29263;48.172;11.484;2023-07-16T12:58:21;25.70;90.50
43665;DHT22;29263;48.172;11.484;2023-07-16T13:00:47;25.60;90.70
43665;DHT22;29263;48.172;11.484;2023-07-16T13:03:13;25.60;90.90
43665;DHT22;29263;48.172;11.484;2023-07-16T13:05:42;25.60;90.70
43665;DHT22;29263;48.172;11.484;2023-07-16T13:08:08;25.60;91.20
43665;DHT22;29263;48.172;11.484;2023-07-16T13:10:34;25.60;91.00
43665;DHT22;29263;48.172;11.484;2023-07-16T13:12:59;25.70;91.30
43665;DHT22;29263;48.172;11.484;2023-07-16T13:15:25;25.70;90.70
43665;DHT22;29263;48.172;11.484;2023-07-16T13:17:51;25.80;90.80
43665;DHT22;29263;48.172;11.484;2023-07-16T13:20:18;25.80;90.90
43665;DHT22;29263;48.172;11.484;2023-07-16T13:22:44;25.80;90.90
43665;DHT22;29263;48.172;11.484;2023-07-16T13:25:09;25.90;90.70
43665;DHT22;29263;48.172;11.484;2023-07-16T13:27:35;26.00;91.10
43665;DHT22;29263;48.172;11.484;2023-07-16T13:30:01;26.00;91.10
43665;DHT22;29263;48.172;11.484;2023-07-16T13:32:27;26.10;90.80
43665;DHT22;29263;48.172;11.484;2023-07-16T13:34:54;26.10;90.10
43665;DHT22;29263;48.172;11.484;2023-07-16T13:37:19;26.00;89.90
43665;DHT22;29263;48.172;11.484;2023-07-16T13:39:45;26.00;90.40
43665;DHT22;29263;48.172;11.484;2023-07-16T13:42:10;26.00;90.40
43665;DHT22;29263;48.172;11.484;2023-07-16T13:44:36;26.10;90.50
43665;DHT22;29263;48.172;11.484;2023-07-16T13:47:02;26.20;90.10
43665;DHT22;29263;48.172;11.484;2023-07-16T13:49:28;26.20;89.90
43665;DHT22;29263;48.172;11.484;2023-07-16T13:51:53;26.30;89.00
43665;DHT22;29263;48.172;11.484;2023-07-16T13:54:19;26.30;89.10
43665;DHT22;29263;48.172;11.484;2023-07-16T13:56:45;26.50;88.30
43665;DHT22;29263;48.172;11.484;2023-07-16T13:59:10;26.60;88.30
43665;DHT22;29263;48.172;11.484;2023-07-16T14:01:38;26.60;87.60
43665;DHT22;29263;48.172;11.484;2023-07-16T14:04:04;26.70;87.80
43665;DHT22;29263;48.172;11.484;2023-07-16T14:06:30;26.70;87.20
43665;DHT22;29263;48.172;11.484;2023-07-16T14:08:55;26.70;88.50
43665;DHT22;29263;48.172;11.484;2023-07-16T14:11:22;26.90;86.50
43665;DHT22;29263;48.172;11.484;2023-07-16T14:13:48;26.90;87.20
43665;DHT22;29263;48.172;11.484;2023-07-16T14:16:17;26.80;86.00
43665;DHT22;29263;48.172;11.484;2023-07-16T14:18:42;26.70;85.90
43665;DHT22;29263;48.172;11.484;2023-07-16T14:21:08;26.50;87.70
43665;DHT22;29263;48.172;11.484;2023-07-16T14:23:34;26.50;86.60
43665;DHT22;29263;48.172;11.484;2023-07-16T14:25:59;26.50;87.10
43665;DHT22;29263;48.172;11.484;2023-07-16T14:28:25;26.70;87.10
43665;DHT22;29263;48.172;11.484;2023-07-16T14:30:50;26.60;85.70
43665;DHT22;29263;48.172;11.484;2023-07-16T14:33:16;26.50;87.30
43665;DHT22;29263;48.172;11.484;2023-07-16T14:35:42;26.40;88.30
43665;DHT22;29263;48.172;11.484;2023-07-16T14:38:07;26.30;87.80
43665;DHT22;29263;48.172;11.484;2023-07-16T14:40:33;26.30;87.90
43665;DHT22;29263;48.172;11.484;2023-07-16T14:42:58;26.20;88.40
43665;DHT22;29263;48.172;11.484;2023-07-16T14:45:24;26.30;87.00
43665;DHT22;29263;48.172;11.484;2023-07-16T14:47:50;26.20;87.20
43665;DHT22;29263;48.172;11.484;2023-07-16T14:50:15;26.20;86.50
43665;DHT22;29263;48.172;11.484;2023-07-16T14:52:41;26.10;86.40
43665;DHT22;29263;48.172;11.484;2023-07-16T14:55:07;26.00;87.70
43665;DHT22;29263;48.172;11.484;2023-07-16T14:57:33;25.90;87.50
43665;DHT22;29263;48.172;11.484;2023-07-16T14:59:59;25.90;87.90
43665;DHT22;29263;48.172;11.484;2023-07-16T15:02:25;25.90;88.20
43665;DHT22;29263;48.172;11.484;2023-07-16T15:04:50;25.90;88.80
43665;DHT22;29263;48.172;11.484;2023-07-16T15:07:16;25.80;86.80
43665;DHT22;29263;48.172;11.484;2023-07-16T15:09:42;25.70;87.10
43665;DHT22;29263;48.172;11.484;2023-07-16T15:12:07;25.70;88.80
43665;DHT22;29263;48.172;11.484;2023-07-16T15:14:34;25.60;86.60
43665;DHT22;29263;48.172;11.484;2023-07-16T15:16:59;25.60;87.80
43665;DHT22;29263;48.172;11.484;2023-07-16T15:19:25;25.60;86.80
43665;DHT22;29263;48.172;11.484;2023-07-16T15:21:50;25.60;86.70